createdAt,value
2019-03-26T00:00:52.386Z,22.18
2019-03-26T00:01:52.377Z,22.26
2019-03-26T00:02:52.461Z,22.26
2019-03-26T00:04:04.881Z,22.16
2019-03-26T00:04:53.341Z,22.22
2019-03-26T00:05:52.332Z,22.23
2019-03-26T00:06:52.321Z,22.25
2019-03-26T00:07:52.306Z,22.23
2019-03-26T00:08:52.492Z,22.28
2019-03-26T00:09:52.283Z,22.26
2019-03-26T00:10:52.273Z,22.31
2019-03-26T00:11:52.261Z,22.23
2019-03-26T00:12:52.250Z,22.26
2019-03-26T00:13:52.240Z,22.16
2019-03-26T00:14:52.349Z,22.21
2019-03-26T00:15:52.228Z,22.21
2019-03-26T00:16:52.210Z,22.28
2019-03-26T00:17:52.198Z,22.21
2019-03-26T00:18:52.195Z,22.28
2019-03-26T00:19:52.176Z,22.18
2019-03-26T00:20:52.427Z,22.25
2019-03-26T00:21:52.165Z,22.16
2019-03-26T00:22:52.147Z,22.16
2019-03-26T00:23:52.137Z,22.21
2019-03-26T00:24:52.127Z,22.19
2019-03-26T00:25:52.112Z,22.23
2019-03-26T00:26:52.292Z,22.23
2019-03-26T00:27:52.099Z,22.19
2019-03-26T00:28:53.035Z,22.23
2019-03-26T00:29:52.068Z,22.16
2019-03-26T00:30:52.056Z,22.12
2019-03-26T00:31:52.048Z,22.21
2019-03-26T00:32:52.130Z,22.14
2019-03-26T00:33:52.025Z,22.10
2019-03-26T00:34:52.014Z,22.22
2019-03-26T00:35:52.003Z,22.21
2019-03-26T00:36:52.066Z,22.18
2019-03-26T00:37:51.982Z,22.16
2019-03-26T00:38:52.171Z,22.08
2019-03-26T00:39:51.971Z,22.10
2019-03-26T00:40:51.948Z,22.16
2019-03-26T00:41:51.938Z,22.15
2019-03-26T00:42:51.933Z,22.18
2019-03-26T00:43:51.927Z,22.18
2019-03-26T00:44:52.150Z,22.07
2019-03-26T00:45:51.899Z,22.21
2019-03-26T00:46:51.886Z,22.08
2019-03-26T00:47:51.874Z,22.07
2019-03-26T00:48:51.870Z,22.19
2019-03-26T00:49:51.873Z,22.14
2019-03-26T00:50:51.937Z,22.14
2019-03-26T00:51:51.829Z,22.08
2019-03-26T00:52:51.818Z,22.08
2019-03-26T00:53:51.814Z,22.12
2019-03-26T00:54:51.798Z,22.12
2019-03-26T00:55:51.787Z,22.10
2019-03-26T00:56:51.869Z,22.12
2019-03-26T00:57:51.764Z,22.08
2019-03-26T00:58:51.755Z,22.07
2019-03-26T00:59:51.747Z,22.16
2019-03-26T01:00:51.736Z,22.08
2019-03-26T01:01:51.724Z,22.07
2019-03-26T01:02:52.013Z,22.06
2019-03-26T01:03:54.855Z,22.14
2019-03-26T01:04:51.692Z,22.06
2019-03-26T01:05:51.681Z,22.12
2019-03-26T01:06:51.671Z,22.18
2019-03-26T01:07:51.659Z,22.15
2019-03-26T01:08:51.763Z,22.16
2019-03-26T01:09:51.641Z,22.15
2019-03-26T01:10:51.631Z,22.08
2019-03-26T01:11:51.623Z,22.06
2019-03-26T01:12:51.603Z,22.08
2019-03-26T01:13:51.594Z,22.10
2019-03-26T01:14:51.853Z,22.08
2019-03-26T01:15:51.572Z,22.06
2019-03-26T01:16:51.562Z,22.10
2019-03-26T01:17:51.551Z,22.12
2019-03-26T01:18:51.541Z,22.07
2019-03-26T01:19:51.527Z,22.14
2019-03-26T01:20:51.678Z,22.04
2019-03-26T01:21:51.506Z,22.08
2019-03-26T01:22:51.494Z,22.08
2019-03-26T01:23:51.485Z,22.06
2019-03-26T01:24:51.477Z,22.04
2019-03-26T01:25:51.467Z,22.10
2019-03-26T01:26:51.561Z,22.14
2019-03-26T01:27:51.443Z,22.12
2019-03-26T01:28:51.434Z,22.10
2019-03-26T01:29:51.427Z,22.06
2019-03-26T01:30:51.415Z,22.07
2019-03-26T01:31:51.403Z,22.12
2019-03-26T01:32:52.536Z,22.04
2019-03-26T01:33:51.377Z,22.10
2019-03-26T01:34:51.377Z,22.12
2019-03-26T01:35:52.040Z,22.07
2019-03-26T01:36:51.347Z,22.12
2019-03-26T01:37:51.335Z,22.14
2019-03-26T01:38:51.484Z,22.10
2019-03-26T01:39:51.312Z,22.14
2019-03-26T01:40:51.301Z,22.04
2019-03-26T01:41:51.289Z,22.04
2019-03-26T01:42:51.286Z,22.10
2019-03-26T01:43:51.270Z,22.08
2019-03-26T01:44:51.354Z,22.12
2019-03-26T01:45:51.250Z,22.10
2019-03-26T01:46:51.239Z,22.06
2019-03-26T01:47:51.227Z,22.06
2019-03-26T01:48:51.219Z,22.06
2019-03-26T01:49:51.211Z,22.14
2019-03-26T01:50:51.498Z,22.06
2019-03-26T01:51:51.186Z,22.14
2019-03-26T01:52:51.175Z,22.10
2019-03-26T01:53:51.167Z,22.10
2019-03-26T01:54:51.156Z,22.15
2019-03-26T01:55:51.145Z,22.10
2019-03-26T01:56:51.240Z,22.08
2019-03-26T01:57:51.130Z,22.12
2019-03-26T01:58:51.106Z,22.04
2019-03-26T01:59:51.113Z,22.12
2019-03-26T02:00:51.085Z,22.14
2019-03-26T02:01:51.105Z,22.10
2019-03-26T02:02:51.159Z,22.08
2019-03-26T02:03:51.053Z,22.12
2019-03-26T02:04:59.845Z,22.07
2019-03-26T02:05:52.029Z,22.07
2019-03-26T02:06:51.027Z,22.01
2019-03-26T02:07:51.013Z,22.06
2019-03-26T02:08:51.161Z,22.04
2019-03-26T02:09:50.988Z,22.07
2019-03-26T02:10:50.978Z,22.10
2019-03-26T02:11:50.967Z,22.06
2019-03-26T02:12:50.959Z,22.08
2019-03-26T02:13:50.947Z,22.06
2019-03-26T02:14:51.163Z,22.12
2019-03-26T02:15:50.927Z,22.07
2019-03-26T02:16:50.920Z,22.07
2019-03-26T02:17:50.908Z,22.00
2019-03-26T02:18:50.898Z,22.07
2019-03-26T02:19:50.884Z,22.07
2019-03-26T02:20:50.970Z,22.07
2019-03-26T02:21:50.859Z,22.07
2019-03-26T02:22:50.851Z,22.04
2019-03-26T02:23:50.868Z,22.03
2019-03-26T02:24:50.832Z,22.10
2019-03-26T02:25:50.833Z,22.15
2019-03-26T02:26:50.965Z,22.08
2019-03-26T02:27:50.793Z,22.08
2019-03-26T02:28:50.783Z,22.06
2019-03-26T02:29:50.786Z,22.12
2019-03-26T02:30:50.762Z,22.12
2019-03-26T02:31:50.751Z,22.15
2019-03-26T02:32:50.838Z,22.07
2019-03-26T02:33:50.731Z,22.00
2019-03-26T02:34:50.719Z,22.07
2019-03-26T02:35:50.722Z,22.07
2019-03-26T02:36:50.702Z,22.14
2019-03-26T02:37:50.690Z,22.06
2019-03-26T02:38:50.766Z,22.12
2019-03-26T02:39:50.669Z,22.04
2019-03-26T02:40:50.661Z,22.07
2019-03-26T02:41:50.642Z,22.07
2019-03-26T02:42:50.639Z,22.14
2019-03-26T02:43:50.630Z,22.10
2019-03-26T02:44:50.964Z,22.08
2019-03-26T02:45:50.603Z,22.10
2019-03-26T02:46:50.588Z,22.10
2019-03-26T02:47:50.577Z,22.08
2019-03-26T02:48:50.643Z,22.06
2019-03-26T02:49:50.561Z,22.03
2019-03-26T02:50:50.664Z,22.07
2019-03-26T02:51:50.535Z,22.10
2019-03-26T02:52:50.540Z,22.10
2019-03-26T02:53:50.517Z,22.04
2019-03-26T02:54:50.504Z,22.07
2019-03-26T02:55:50.494Z,22.06
2019-03-26T02:56:50.581Z,22.08
2019-03-26T02:57:50.470Z,22.04
2019-03-26T02:58:50.462Z,22.04
2019-03-26T02:59:50.456Z,22.12
2019-03-26T03:00:50.442Z,22.03
2019-03-26T03:01:50.430Z,22.03
2019-03-26T03:02:50.577Z,22.00
2019-03-26T03:03:50.412Z,22.03
2019-03-26T03:04:50.395Z,22.04
2019-03-26T03:05:50.433Z,22.10
2019-03-26T03:06:50.374Z,22.06
2019-03-26T03:07:50.361Z,22.04
2019-03-26T03:08:50.571Z,22.07
2019-03-26T03:09:50.341Z,22.08
2019-03-26T03:10:50.434Z,22.06
2019-03-26T03:11:50.321Z,22.07
2019-03-26T03:12:50.308Z,22.07
2019-03-26T03:13:50.296Z,22.01
2019-03-26T03:14:50.380Z,22.03
2019-03-26T03:15:50.282Z,22.07
2019-03-26T03:16:50.264Z,22.06
2019-03-26T03:17:50.252Z,22.04
2019-03-26T03:18:50.246Z,22.06
2019-03-26T03:19:50.236Z,22.04
2019-03-26T03:20:50.384Z,22.07
2019-03-26T03:21:50.216Z,22.07
2019-03-26T03:22:50.205Z,22.03
2019-03-26T03:23:50.191Z,22.04
2019-03-26T03:24:50.178Z,21.99
2019-03-26T03:25:50.167Z,22.07
2019-03-26T03:26:50.269Z,22.07
2019-03-26T03:27:50.164Z,22.04
2019-03-26T03:28:50.135Z,22.01
2019-03-26T03:29:50.124Z,21.99
2019-03-26T03:30:50.148Z,22.07
2019-03-26T03:31:50.106Z,22.00
2019-03-26T03:32:50.261Z,22.07
2019-03-26T03:33:50.080Z,22.07
2019-03-26T03:34:50.088Z,22.07
2019-03-26T03:35:52.612Z,22.03
2019-03-26T03:36:50.054Z,22.07
2019-03-26T03:37:50.037Z,22.01
2019-03-26T03:38:50.148Z,22.03
2019-03-26T03:39:50.019Z,22.12
2019-03-26T03:40:50.006Z,22.03
2019-03-26T03:41:49.994Z,22.10
2019-03-26T03:42:49.997Z,22.01
2019-03-26T03:43:49.974Z,22.06
2019-03-26T03:44:50.082Z,22.10
2019-03-26T03:45:49.954Z,22.08
2019-03-26T03:46:49.944Z,22.04
2019-03-26T03:47:49.933Z,22.01
2019-03-26T03:48:49.937Z,22.04
2019-03-26T03:49:49.915Z,22.06
2019-03-26T03:50:49.995Z,21.97
2019-03-26T03:51:49.888Z,22.08
2019-03-26T03:52:49.878Z,22.04
2019-03-26T03:53:49.865Z,22.08
2019-03-26T03:54:49.856Z,22.03
2019-03-26T03:55:49.848Z,22.08
2019-03-26T03:56:49.991Z,22.04
2019-03-26T03:57:52.859Z,22.00
2019-03-26T03:58:49.812Z,22.03
2019-03-26T03:59:49.804Z,22.03
2019-03-26T04:00:49.791Z,22.07
2019-03-26T04:01:49.780Z,22.03
2019-03-26T04:02:49.883Z,22.04
2019-03-26T04:03:49.758Z,22.01
2019-03-26T04:04:49.748Z,22.07
2019-03-26T04:05:49.741Z,22.06
2019-03-26T04:06:49.736Z,22.07
2019-03-26T04:07:49.717Z,22.03
2019-03-26T04:08:49.811Z,22.07
2019-03-26T04:09:49.695Z,22.04
2019-03-26T04:10:49.684Z,22.04
2019-03-26T04:11:49.679Z,22.07
2019-03-26T04:12:49.665Z,22.03
2019-03-26T04:13:49.657Z,22.10
2019-03-26T04:14:49.905Z,22.08
2019-03-26T04:15:49.633Z,22.12
2019-03-26T04:16:49.623Z,22.10
2019-03-26T04:17:49.620Z,22.10
2019-03-26T04:18:49.600Z,22.06
2019-03-26T04:19:49.587Z,21.99
2019-03-26T04:20:49.671Z,21.99
2019-03-26T04:21:49.569Z,22.08
2019-03-26T04:22:49.557Z,22.08
2019-03-26T04:23:49.542Z,22.10
2019-03-26T04:24:49.533Z,22.12
2019-03-26T04:25:49.522Z,22.07
2019-03-26T04:26:49.668Z,22.07
2019-03-26T04:27:49.504Z,22.14
2019-03-26T04:28:49.489Z,22.08
2019-03-26T04:29:49.477Z,22.10
2019-03-26T04:30:49.472Z,22.01
2019-03-26T04:31:49.459Z,22.06
2019-03-26T04:32:49.546Z,22.06
2019-03-26T04:33:49.438Z,22.07
2019-03-26T04:34:49.428Z,22.08
2019-03-26T04:35:49.414Z,22.15
2019-03-26T04:36:49.405Z,22.06
2019-03-26T04:37:49.397Z,22.10
2019-03-26T04:38:49.484Z,22.08
2019-03-26T04:39:49.369Z,22.08
2019-03-26T04:40:49.367Z,22.14
2019-03-26T04:41:49.347Z,22.14
2019-03-26T04:42:49.336Z,22.10
2019-03-26T04:43:49.327Z,22.10
2019-03-26T04:44:49.608Z,22.06
2019-03-26T04:45:49.303Z,22.04
2019-03-26T04:46:49.294Z,22.01
2019-03-26T04:47:49.283Z,22.07
2019-03-26T04:48:49.271Z,22.04
2019-03-26T04:49:49.266Z,22.01
2019-03-26T04:50:49.531Z,22.06
2019-03-26T04:51:49.246Z,22.03
2019-03-26T04:52:49.229Z,22.10
2019-03-26T04:53:49.220Z,21.94
2019-03-26T04:54:49.303Z,22.03
2019-03-26T04:55:49.204Z,22.00
2019-03-26T04:56:49.305Z,22.00
2019-03-26T04:57:49.176Z,22.06
2019-03-26T04:58:49.165Z,22.01
2019-03-26T04:59:49.159Z,22.07
2019-03-26T05:00:49.152Z,22.00
2019-03-26T05:01:49.131Z,22.01
2019-03-26T05:02:49.341Z,22.01
2019-03-26T05:03:49.127Z,21.94
2019-03-26T05:04:49.102Z,21.97
2019-03-26T05:05:49.093Z,21.97
2019-03-26T05:06:49.085Z,21.96
2019-03-26T05:07:49.069Z,21.99
2019-03-26T05:08:49.156Z,22.00
2019-03-26T05:09:49.055Z,22.00
2019-03-26T05:10:49.350Z,21.94
2019-03-26T05:11:49.023Z,21.92
2019-03-26T05:12:49.020Z,22.03
2019-03-26T05:13:49.003Z,21.96
2019-03-26T05:14:49.091Z,21.96
2019-03-26T05:15:48.985Z,22.01
2019-03-26T05:16:48.971Z,22.01
2019-03-26T05:17:48.961Z,22.00
2019-03-26T05:18:48.947Z,21.91
2019-03-26T05:19:48.938Z,21.89
2019-03-26T05:20:49.089Z,21.96
2019-03-26T05:21:48.918Z,21.94
2019-03-26T05:22:48.910Z,21.97
2019-03-26T05:23:51.791Z,21.97
2019-03-26T05:24:48.882Z,21.94
2019-03-26T05:25:48.874Z,21.96
2019-03-26T05:26:48.960Z,21.92
2019-03-26T05:27:48.850Z,22.00
2019-03-26T05:28:48.846Z,21.96
2019-03-26T05:29:48.834Z,21.92
2019-03-26T05:30:48.817Z,22.01
2019-03-26T05:31:48.817Z,21.94
2019-03-26T05:32:48.953Z,22.00
2019-03-26T05:33:48.786Z,21.94
2019-03-26T05:34:48.774Z,22.03
2019-03-26T05:35:51.482Z,21.96
2019-03-26T05:36:51.684Z,21.97
2019-03-26T05:37:48.743Z,21.94
2019-03-26T05:38:48.828Z,21.97
2019-03-26T05:39:48.721Z,21.96
2019-03-26T05:40:48.712Z,22.00
2019-03-26T05:41:48.701Z,21.97
2019-03-26T05:42:48.692Z,22.01
2019-03-26T05:43:48.681Z,22.03
2019-03-26T05:44:48.762Z,22.04
2019-03-26T05:45:48.658Z,21.99
2019-03-26T05:46:48.657Z,21.99
2019-03-26T05:47:48.646Z,22.04
2019-03-26T05:48:48.628Z,22.06
2019-03-26T05:49:48.615Z,22.01
2019-03-26T05:50:48.809Z,22.06
2019-03-26T05:51:48.600Z,22.08
2019-03-26T05:52:48.578Z,22.08
2019-03-26T05:53:48.593Z,22.08
2019-03-26T05:54:48.557Z,22.08
2019-03-26T05:55:48.547Z,22.10
2019-03-26T05:56:48.635Z,22.00
2019-03-26T05:57:48.525Z,22.08
2019-03-26T05:58:48.515Z,22.03
2019-03-26T05:59:48.504Z,22.01
2019-03-26T06:00:48.494Z,22.06
2019-03-26T06:01:48.482Z,22.01
2019-03-26T06:02:48.573Z,22.07
2019-03-26T06:03:48.465Z,22.10
2019-03-26T06:04:48.456Z,22.07
2019-03-26T06:05:48.437Z,22.00
2019-03-26T06:06:48.426Z,22.04
2019-03-26T06:07:49.048Z,22.03
2019-03-26T06:08:48.509Z,21.96
2019-03-26T06:09:48.409Z,22.06
2019-03-26T06:10:48.383Z,22.01
2019-03-26T06:11:48.374Z,22.07
2019-03-26T06:12:50.269Z,21.92
2019-03-26T06:13:48.349Z,21.99
2019-03-26T06:14:48.595Z,22.01
2019-03-26T06:15:48.339Z,21.97
2019-03-26T06:16:48.325Z,22.06
2019-03-26T06:17:48.307Z,22.03
2019-03-26T06:18:48.297Z,22.04
2019-03-26T06:19:48.293Z,22.06
2019-03-26T06:20:48.395Z,22.03
2019-03-26T06:21:48.263Z,22.08
2019-03-26T06:22:48.252Z,22.12
2019-03-26T06:23:48.243Z,22.01
2019-03-26T06:24:48.233Z,22.01
2019-03-26T06:25:48.221Z,22.06
2019-03-26T06:26:48.336Z,22.12
2019-03-26T06:27:48.207Z,22.12
2019-03-26T06:28:48.188Z,21.99
2019-03-26T06:29:48.177Z,22.01
2019-03-26T06:30:48.166Z,22.07
2019-03-26T06:31:48.155Z,22.08
2019-03-26T06:32:48.421Z,22.08
2019-03-26T06:33:48.137Z,22.03
2019-03-26T06:34:48.123Z,22.06
2019-03-26T06:35:48.110Z,22.15
2019-03-26T06:36:48.102Z,22.12
2019-03-26T06:37:48.102Z,22.18
2019-03-26T06:38:48.174Z,22.07
2019-03-26T06:39:48.071Z,22.15
2019-03-26T06:40:48.062Z,22.14
2019-03-26T06:41:48.049Z,22.12
2019-03-26T06:42:48.037Z,22.12
2019-03-26T06:43:48.026Z,22.12
2019-03-26T06:44:48.130Z,22.12
2019-03-26T06:45:48.022Z,22.08
2019-03-26T06:46:47.997Z,22.19
2019-03-26T06:47:47.993Z,22.28
2019-03-26T06:48:47.980Z,22.28
2019-03-26T06:49:47.965Z,22.28
2019-03-26T06:50:48.060Z,22.26
2019-03-26T06:51:47.941Z,22.21
2019-03-26T06:52:47.930Z,22.18
2019-03-26T06:53:47.922Z,22.22
2019-03-26T06:54:47.916Z,22.26
2019-03-26T06:55:47.900Z,22.26
2019-03-26T06:56:48.191Z,22.31
2019-03-26T06:57:47.878Z,22.28
2019-03-26T06:58:47.864Z,22.21
2019-03-26T06:59:47.855Z,22.16
2019-03-26T07:00:47.842Z,22.26
2019-03-26T07:01:47.840Z,22.30
2019-03-26T07:02:48.118Z,22.23
2019-03-26T07:03:47.813Z,22.26
2019-03-26T07:04:47.801Z,22.21
2019-03-26T07:05:47.791Z,22.28
2019-03-26T07:06:47.779Z,22.22
2019-03-26T07:07:47.770Z,22.23
2019-03-26T07:08:47.858Z,22.16
2019-03-26T07:09:47.749Z,22.28
2019-03-26T07:10:47.734Z,22.28
2019-03-26T07:11:47.731Z,22.26
2019-03-26T07:12:47.722Z,22.31
2019-03-26T07:13:47.701Z,22.28
2019-03-26T07:14:47.866Z,22.31
2019-03-26T07:15:47.680Z,22.25
2019-03-26T07:16:47.671Z,22.23
2019-03-26T07:17:47.659Z,22.28
2019-03-26T07:18:47.650Z,22.22
2019-03-26T07:19:47.639Z,22.22
2019-03-26T07:20:47.717Z,22.28
2019-03-26T07:21:49.878Z,22.23
2019-03-26T07:22:47.610Z,22.30
2019-03-26T07:23:47.593Z,22.25
2019-03-26T07:24:47.584Z,22.19
2019-03-26T07:25:47.574Z,22.26
2019-03-26T07:26:47.658Z,22.18
2019-03-26T07:27:47.551Z,22.19
2019-03-26T07:28:47.544Z,22.21
2019-03-26T07:29:47.530Z,22.19
2019-03-26T07:30:47.519Z,22.22
2019-03-26T07:31:47.513Z,22.16
2019-03-26T07:32:47.660Z,22.21
2019-03-26T07:33:47.488Z,22.26
2019-03-26T07:34:47.477Z,22.23
2019-03-26T07:35:47.467Z,22.08
2019-03-26T07:36:47.456Z,22.23
2019-03-26T07:37:47.451Z,22.10
2019-03-26T07:38:47.551Z,22.10
2019-03-26T07:39:47.423Z,22.14
2019-03-26T07:40:47.415Z,22.06
2019-03-26T07:41:47.409Z,22.12
2019-03-26T07:42:47.396Z,22.15
2019-03-26T07:43:47.410Z,22.19
2019-03-26T07:44:47.464Z,22.15
2019-03-26T07:45:47.362Z,22.14
2019-03-26T07:46:47.348Z,22.12
2019-03-26T07:47:47.336Z,22.14
2019-03-26T07:48:47.329Z,22.12
2019-03-26T07:49:47.316Z,22.12
2019-03-26T07:50:47.470Z,22.15
2019-03-26T07:51:47.293Z,22.19
2019-03-26T07:52:47.287Z,22.16
2019-03-26T07:53:47.279Z,22.04
2019-03-26T07:54:47.264Z,22.04
2019-03-26T07:55:47.252Z,22.07
2019-03-26T07:56:47.397Z,22.10
2019-03-26T07:57:47.235Z,22.14
2019-03-26T07:58:47.222Z,22.10
2019-03-26T07:59:47.212Z,22.08
2019-03-26T08:00:47.197Z,22.16
2019-03-26T08:01:47.187Z,22.07
2019-03-26T08:02:47.591Z,22.22
2019-03-26T08:03:47.172Z,22.16
2019-03-26T08:04:47.155Z,22.12
2019-03-26T08:05:47.144Z,22.16
2019-03-26T08:06:47.137Z,22.21
2019-03-26T08:07:57.834Z,22.15
2019-03-26T08:08:48.205Z,22.19
2019-03-26T08:09:47.104Z,22.19
2019-03-26T08:10:47.089Z,22.22
2019-03-26T08:11:47.079Z,22.21
2019-03-26T08:12:47.072Z,22.25
2019-03-26T08:13:47.100Z,22.23
2019-03-26T08:14:47.348Z,22.23
2019-03-26T08:15:47.057Z,22.21
2019-03-26T08:16:47.041Z,22.21
2019-03-26T08:17:47.016Z,22.25
2019-03-26T08:18:47.003Z,22.19
2019-03-26T08:19:46.996Z,22.26
2019-03-26T08:20:47.238Z,22.15
2019-03-26T08:21:46.972Z,22.25
2019-03-26T08:22:46.964Z,22.23
2019-03-26T08:23:47.479Z,22.22
2019-03-26T08:24:46.942Z,22.23
2019-03-26T08:25:46.932Z,22.31
2019-03-26T08:26:47.010Z,22.19
2019-03-26T08:27:46.990Z,22.26
2019-03-26T08:28:46.896Z,22.28
2019-03-26T08:29:46.887Z,22.26
2019-03-26T08:30:50.010Z,22.22
2019-03-26T08:31:46.863Z,22.16
2019-03-26T08:32:47.109Z,22.25
2019-03-26T08:33:46.849Z,22.19
2019-03-26T08:34:46.947Z,22.23
2019-03-26T08:35:46.835Z,22.18
2019-03-26T08:36:46.813Z,22.14
2019-03-26T08:37:46.801Z,22.25
2019-03-26T08:38:46.893Z,22.10
2019-03-26T08:39:46.853Z,22.21
2019-03-26T08:40:46.776Z,22.21
2019-03-26T08:41:46.757Z,22.21
2019-03-26T08:42:46.748Z,22.08
2019-03-26T08:43:46.737Z,22.25
2019-03-26T08:44:46.820Z,22.18
2019-03-26T08:45:46.731Z,22.25
2019-03-26T08:46:46.708Z,22.25
2019-03-26T08:47:46.694Z,22.26
2019-03-26T08:48:46.681Z,22.21
2019-03-26T08:49:46.674Z,22.22
2019-03-26T08:50:46.831Z,22.16
2019-03-26T08:51:46.658Z,22.23
2019-03-26T08:52:46.649Z,22.30
2019-03-26T08:53:46.631Z,22.22
2019-03-26T08:54:46.618Z,22.21
2019-03-26T08:55:46.609Z,22.21
2019-03-26T08:56:46.884Z,22.21
2019-03-26T08:57:46.586Z,22.21
2019-03-26T08:58:46.580Z,22.23
2019-03-26T08:59:46.567Z,22.25
2019-03-26T09:00:46.556Z,22.23
2019-03-26T09:01:46.548Z,22.26
2019-03-26T09:02:46.645Z,22.30
2019-03-26T09:03:46.522Z,22.19
2019-03-26T09:04:46.514Z,22.26
2019-03-26T09:05:46.500Z,22.21
2019-03-26T09:06:46.490Z,22.31
2019-03-26T09:07:46.479Z,22.33
2019-03-26T09:08:46.564Z,22.30
2019-03-26T09:09:46.458Z,22.34
2019-03-26T09:10:51.551Z,22.33
2019-03-26T09:11:47.435Z,22.31
2019-03-26T09:12:46.442Z,22.36
2019-03-26T09:13:46.414Z,22.37
2019-03-26T09:14:46.598Z,22.41
2019-03-26T09:15:46.395Z,22.40
2019-03-26T09:16:46.386Z,22.40
2019-03-26T09:17:46.375Z,22.38
2019-03-26T09:18:46.366Z,22.37
2019-03-26T09:19:46.352Z,22.36
2019-03-26T09:20:46.440Z,22.36
2019-03-26T09:21:46.330Z,22.41
2019-03-26T09:22:46.319Z,22.44
2019-03-26T09:23:46.311Z,22.40
2019-03-26T09:24:46.299Z,22.43
2019-03-26T09:25:46.287Z,22.43
2019-03-26T09:26:46.462Z,22.46
2019-03-26T09:27:46.265Z,22.47
2019-03-26T09:28:47.825Z,22.46
2019-03-26T09:29:46.245Z,22.44
2019-03-26T09:30:46.233Z,22.43
2019-03-26T09:31:46.221Z,22.44
2019-03-26T09:32:46.375Z,22.52
2019-03-26T09:33:46.199Z,22.51
2019-03-26T09:34:46.199Z,22.51
2019-03-26T09:35:46.184Z,22.43
2019-03-26T09:36:46.169Z,22.44
2019-03-26T09:37:46.156Z,22.44
2019-03-26T09:38:46.266Z,22.46
2019-03-26T09:39:46.140Z,22.44
2019-03-26T09:40:46.129Z,22.46
2019-03-26T09:41:46.142Z,22.43
2019-03-26T09:42:46.123Z,22.47
2019-03-26T09:43:46.093Z,22.47
2019-03-26T09:44:46.381Z,22.53
2019-03-26T09:45:46.071Z,22.47
2019-03-26T09:46:46.060Z,22.51
2019-03-26T09:47:46.051Z,22.47
2019-03-26T09:48:46.042Z,22.44
2019-03-26T09:49:46.027Z,22.59
2019-03-26T09:50:46.116Z,22.41
2019-03-26T09:51:46.016Z,22.59
2019-03-26T09:52:46.000Z,22.56
2019-03-26T09:53:45.986Z,22.53
2019-03-26T09:54:45.975Z,22.58
2019-03-26T09:55:45.962Z,22.61
2019-03-26T09:56:46.048Z,22.56
2019-03-26T09:57:45.947Z,22.65
2019-03-26T09:58:45.936Z,22.56
2019-03-26T09:59:45.919Z,22.53
2019-03-26T10:00:46.000Z,22.55
2019-03-26T10:01:45.897Z,22.58
2019-03-26T10:02:45.984Z,22.53
2019-03-26T10:03:45.876Z,22.46
2019-03-26T10:04:45.871Z,22.51
2019-03-26T10:05:45.854Z,22.49
2019-03-26T10:06:45.845Z,22.44
2019-03-26T10:07:45.834Z,22.53
2019-03-26T10:08:52.317Z,22.55
2019-03-26T10:09:46.811Z,22.52
2019-03-26T10:10:45.827Z,22.52
2019-03-26T10:11:45.790Z,22.56
2019-03-26T10:12:45.779Z,22.65
2019-03-26T10:13:45.773Z,22.55
2019-03-26T10:14:46.723Z,22.62
2019-03-26T10:15:45.747Z,22.63
2019-03-26T10:16:45.749Z,22.63
2019-03-26T10:17:45.725Z,22.65
2019-03-26T10:18:45.715Z,22.58
2019-03-26T10:19:45.704Z,22.62
2019-03-26T10:20:45.789Z,22.68
2019-03-26T10:21:45.692Z,22.65
2019-03-26T10:22:45.671Z,22.62
2019-03-26T10:23:45.660Z,22.70
2019-03-26T10:24:45.648Z,22.73
2019-03-26T10:25:45.638Z,22.70
2019-03-26T10:26:45.746Z,22.74
2019-03-26T10:27:45.618Z,22.77
2019-03-26T10:28:45.607Z,22.77
2019-03-26T10:29:45.603Z,22.77
2019-03-26T10:30:45.586Z,22.77
2019-03-26T10:31:45.571Z,22.77
2019-03-26T10:32:45.838Z,22.80
2019-03-26T10:33:45.556Z,22.78
2019-03-26T10:34:45.540Z,22.77
2019-03-26T10:35:45.532Z,22.78
2019-03-26T10:36:45.535Z,22.74
2019-03-26T10:37:45.507Z,22.86
2019-03-26T10:38:45.594Z,22.88
2019-03-26T10:39:45.485Z,22.78
2019-03-26T10:40:45.573Z,22.83
2019-03-26T10:41:45.468Z,22.78
2019-03-26T10:42:45.455Z,22.80
2019-03-26T10:43:45.448Z,22.91
2019-03-26T10:44:45.536Z,22.81
2019-03-26T10:45:45.423Z,22.80
2019-03-26T10:46:45.417Z,22.83
2019-03-26T10:47:45.402Z,22.76
2019-03-26T10:48:45.390Z,22.76
2019-03-26T10:49:45.384Z,22.88
2019-03-26T10:50:45.649Z,22.84
2019-03-26T10:51:45.361Z,22.88
2019-03-26T10:52:45.347Z,22.92
2019-03-26T10:53:45.337Z,22.95
2019-03-26T10:54:45.322Z,22.83
2019-03-26T10:55:45.312Z,22.93
2019-03-26T10:56:45.460Z,22.92
2019-03-26T10:57:45.290Z,22.88
2019-03-26T10:58:45.280Z,22.91
2019-03-26T10:59:45.273Z,22.95
2019-03-26T11:00:45.286Z,22.92
2019-03-26T11:01:45.247Z,22.93
2019-03-26T11:02:45.333Z,22.98
2019-03-26T11:03:45.224Z,22.98
2019-03-26T11:04:45.217Z,22.99
2019-03-26T11:05:45.208Z,23.06
2019-03-26T11:06:45.208Z,22.99
2019-03-26T11:07:45.180Z,23.07
2019-03-26T11:08:45.407Z,23.01
2019-03-26T11:09:45.162Z,23.08
2019-03-26T11:10:45.149Z,23.08
2019-03-26T11:11:45.148Z,23.08
2019-03-26T11:12:45.128Z,23.14
2019-03-26T11:13:45.115Z,23.07
2019-03-26T11:14:45.404Z,23.23
2019-03-26T11:15:45.094Z,23.14
2019-03-26T11:16:45.085Z,23.16
2019-03-26T11:17:45.071Z,23.10
2019-03-26T11:18:45.061Z,23.18
2019-03-26T11:19:46.583Z,23.21
2019-03-26T11:20:45.202Z,23.17
2019-03-26T11:21:45.031Z,23.25
2019-03-26T11:22:45.024Z,23.13
2019-03-26T11:23:45.031Z,23.17
2019-03-26T11:24:44.996Z,23.16
2019-03-26T11:25:44.994Z,23.17
2019-03-26T11:26:45.066Z,23.10
2019-03-26T11:27:44.968Z,23.16
2019-03-26T11:28:44.954Z,23.20
2019-03-26T11:29:44.950Z,23.11
2019-03-26T11:30:44.930Z,23.11
2019-03-26T11:31:44.929Z,23.18
2019-03-26T11:32:45.165Z,23.23
2019-03-26T11:33:44.911Z,23.18
2019-03-26T11:34:44.891Z,23.21
2019-03-26T11:35:44.886Z,23.25
2019-03-26T11:36:44.869Z,23.18
2019-03-26T11:37:44.856Z,23.25
2019-03-26T11:38:44.947Z,23.28
2019-03-26T11:39:44.835Z,23.29
2019-03-26T11:40:44.825Z,23.25
2019-03-26T11:41:44.818Z,23.29
2019-03-26T11:42:44.802Z,23.28
2019-03-26T11:43:44.792Z,23.25
2019-03-26T11:44:44.876Z,23.32
2019-03-26T11:45:44.771Z,23.29
2019-03-26T11:46:44.762Z,23.28
2019-03-26T11:47:44.752Z,23.29
2019-03-26T11:48:44.740Z,23.23
2019-03-26T11:49:44.730Z,23.29
2019-03-26T11:50:44.886Z,23.32
2019-03-26T11:51:44.720Z,23.29
2019-03-26T11:52:44.719Z,23.29
2019-03-26T11:53:44.691Z,23.33
2019-03-26T11:54:44.680Z,23.37
2019-03-26T11:55:44.669Z,23.34
2019-03-26T11:56:44.756Z,23.39
2019-03-26T11:57:44.649Z,23.40
2019-03-26T11:58:44.649Z,23.47
2019-03-26T11:59:44.630Z,23.36
2019-03-26T12:00:44.608Z,23.42
2019-03-26T12:01:44.612Z,23.37
2019-03-26T12:02:44.703Z,23.37
2019-03-26T12:03:44.577Z,23.47
2019-03-26T12:04:44.566Z,23.45
2019-03-26T12:05:44.557Z,23.48
2019-03-26T12:06:44.552Z,23.51
2019-03-26T12:07:44.535Z,23.49
2019-03-26T12:08:44.701Z,23.42
2019-03-26T12:09:46.522Z,23.32
2019-03-26T12:10:44.503Z,23.44
2019-03-26T12:11:44.491Z,23.40
2019-03-26T12:12:44.485Z,23.29
2019-03-26T12:13:44.474Z,23.37
2019-03-26T12:14:44.582Z,23.32
2019-03-26T12:15:44.446Z,23.40
2019-03-26T12:16:44.435Z,23.42
2019-03-26T12:17:44.423Z,23.34
2019-03-26T12:18:44.425Z,23.42
2019-03-26T12:19:44.401Z,23.34
2019-03-26T12:20:44.505Z,23.42
2019-03-26T12:21:44.382Z,23.45
2019-03-26T12:22:44.408Z,23.49
2019-03-26T12:23:44.358Z,23.48
2019-03-26T12:24:44.351Z,23.45
2019-03-26T12:25:44.343Z,23.48
2019-03-26T12:26:44.491Z,23.48
2019-03-26T12:27:44.316Z,23.45
2019-03-26T12:28:44.312Z,23.47
2019-03-26T12:29:44.297Z,23.47
2019-03-26T12:30:44.303Z,23.48
2019-03-26T12:31:44.276Z,23.45
2019-03-26T12:32:44.376Z,23.47
2019-03-26T12:33:44.255Z,23.45
2019-03-26T12:34:44.246Z,23.55
2019-03-26T12:35:44.251Z,23.54
2019-03-26T12:36:44.219Z,23.45
2019-03-26T12:37:44.207Z,23.59
2019-03-26T12:38:44.398Z,23.56
2019-03-26T12:39:44.457Z,23.58
2019-03-26T12:40:44.180Z,23.58
2019-03-26T12:41:44.185Z,23.55
2019-03-26T12:42:44.152Z,23.56
2019-03-26T12:43:44.141Z,23.58
2019-03-26T12:44:44.231Z,23.71
2019-03-26T12:45:44.122Z,23.62
2019-03-26T12:46:44.114Z,23.69
2019-03-26T12:47:44.099Z,23.64
2019-03-26T12:48:44.088Z,23.73
2019-03-26T12:49:44.086Z,23.70
2019-03-26T12:50:44.257Z,23.62
2019-03-26T12:51:44.069Z,23.73
2019-03-26T12:52:44.047Z,23.81